Meteorología y climatología de Navarra
Datos de la estación - Meteo Navarra

Estación de Arangoiti GN

Altitud 1353 m.


Datos desde el 23/05/2020 hasta el 24/05/2020 en horario solar
Los datos son PROVISIONALES

Anterior Página 1 de 1 Siguiente Descargar: Formato para Excel 2000 o superior   Formato csv   Formato para OpenOffice Calc
Fecha Temperatura Humedad relativa Radiación global Insolación Precipitación Vel. viento 10 m Vel. viento 10 m Dir. viento 10 m
ºC % W/m² s l/m² m/s km/h º
23/05/2020 0:00 17.6 55 0.0 0 0.0 6.9 24.8 146
23/05/2020 0:10 17.9 54 0.0 0 0.0 6.7 24.2 147
23/05/2020 0:20 17.6 54 0.0 0 0.0 7.2 25.9 148
23/05/2020 0:30 17.6 55 0.0 0 0.0 7.8 28.0 148
23/05/2020 0:40 17.6 55 0.0 0 0.0 7.6 27.5 148
23/05/2020 0:50 17.4 54 0.0 0 0.0 8.1 29.2 146
23/05/2020 1:00 17.5 53 0.0 0 0.0 8.3 29.9 145
23/05/2020 1:10 17.4 52 0.0 0 0.0 8.1 29.2 145
23/05/2020 1:20 17.4 53 0.0 0 0.0 8.5 30.5 144
23/05/2020 1:30 17.6 53 0.0 0 0.0 8.6 31.1 143
23/05/2020 1:40 17.0 55 0.0 0 0.0 7.8 28.2 144
23/05/2020 1:50 16.8 56 0.0 0 0.0 7.9 28.3 143
23/05/2020 2:00 16.6 57 0.0 0 0.0 7.6 27.3 144
23/05/2020 2:10 16.8 56 0.0 0 0.0 8.1 29.1 141
23/05/2020 2:20 16.4 57 0.0 0 0.0 6.3 22.8 143
23/05/2020 2:30 16.1 58 0.0 0 0.0 6.0 21.5 141
23/05/2020 2:40 16.0 62 0.0 0 0.0 4.9 17.5 145
23/05/2020 2:50 16.3 59 0.0 0 0.0 4.0 14.5 150
23/05/2020 3:00 15.2 64 0.0 0 0.0 3.6 13.0 154
23/05/2020 3:10 15.1 65 0.0 0 0.0 3.6 13.0 167
23/05/2020 3:20 12.0 97 0.0 0 0.0 1.8 6.6 260
23/05/2020 3:30 11.9 98 0.0 0 0.0 1.5 5.5 305
23/05/2020 3:40 11.8 99 0.0 0 0.0 2.8 9.9 327
23/05/2020 3:50 11.8 99 0.0 0 0.0 2.1 7.7 316
23/05/2020 4:00 11.8 100 0.0 0 0.0 2.1 7.6 295
23/05/2020 4:10 11.8 100 0.0 0 0.0 3.1 11.1 330
23/05/2020 4:20 11.8 99 0.0 0 0.0 2.2 8.0 331
23/05/2020 4:30 11.7 99 0.0 0 0.0 2.1 7.6 332
23/05/2020 4:40 11.9 97 7.2 0 0.0 1.9 6.9 330
23/05/2020 4:50 12.0 95 18.0 0 0.0 1.3 4.8 333
23/05/2020 5:00 11.8 95 21.2 0 0.0 3.1 11.1 335
23/05/2020 5:10 11.8 96 24.8 0 0.0 2.1 7.4 339
23/05/2020 5:20 13.4 72 31.3 0 0.0 3.0 10.9 194
23/05/2020 5:30 14.2 67 41.7 0 0.0 3.4 12.1 196
23/05/2020 5:40 14.3 71 67.7 0 0.0 3.2 11.5 197
23/05/2020 5:50 13.1 88 100.9 260 0.0 0.6 2.3 202
23/05/2020 6:00 12.5 90 182.6 586 0.0 1.3 4.8 24
23/05/2020 6:10 12.3 89 194.6 474 0.0 0.9 3.1 79
23/05/2020 6:20 12.5 87 234.9 562 0.0 1.4 5.1 78
23/05/2020 6:30 13.6 73 261.5 472 0.0 1.2 4.3 141
23/05/2020 6:40 15.9 68 276.9 470 0.0 2.3 8.3 180
23/05/2020 6:50 14.4 79 348.0 542 0.0 1.4 5.2 150
23/05/2020 7:00 12.8 84 317.8 556 0.0 1.7 6.0 54
23/05/2020 7:10 11.6 92 385.1 600 0.0 4.2 15.2 19
23/05/2020 7:20 11.2 97 435.7 596 0.0 4.8 17.2 15
23/05/2020 7:30 10.7 97 347.9 406 0.0 5.5 19.8 14
23/05/2020 7:40 10.9 99 388.1 440 0.0 5.9 21.2 21
23/05/2020 7:50 11.3 99 527.1 576 0.0 5.8 20.9 21
23/05/2020 8:00 11.0 99 534.9 522 0.0 5.0 18.0 14
23/05/2020 8:10 11.0 99 570.9 570 0.0 6.2 22.3 6
23/05/2020 8:20 11.4 99 602.5 590 0.0 7.3 26.2 7
23/05/2020 8:30 11.3 99 669.2 600 0.0 7.7 27.6 5
23/05/2020 8:40 11.1 98 566.5 598 0.0 9.4 33.9 2
23/05/2020 8:50 11.7 98 673.8 600 0.0 9.2 33.0 4
23/05/2020 9:00 11.6 98 486.4 396 0.0 9.0 32.4 7
23/05/2020 9:10 11.8 97 421.2 286 0.0 7.9 28.5 3
23/05/2020 9:20 12.7 96 580.0 546 0.0 8.2 29.3 2
23/05/2020 9:30 12.9 94 717.9 600 0.0 7.5 27.0 5
23/05/2020 9:40 12.8 92 770.5 600 0.0 7.5 27.1 359
23/05/2020 9:50 13.5 90 770.7 600 0.0 8.7 31.2 351
23/05/2020 10:00 14.4 85 723.6 600 0.0 8.9 32.0 351
23/05/2020 10:10 14.6 85 845.0 600 0.0 10.0 35.9 347
23/05/2020 10:20 14.4 82 695.9 506 0.0 10.5 37.9 343
23/05/2020 10:30 15.5 77 691.2 422 0.0 10.8 38.9 344
23/05/2020 10:40 15.5 76 975.0 600 0.0 11.0 39.7 342
23/05/2020 10:50 16.1 74 955.0 582 0.0 10.9 39.3 339
23/05/2020 11:00 15.9 75 1073.0 600 0.0 11.7 42.1 338
23/05/2020 11:10 15.7 77 1045.0 600 0.0 11.3 40.7 341
23/05/2020 11:20 15.3 80 1071.0 600 0.0 11.7 42.2 339
23/05/2020 11:30 15.6 79 1070.0 600 0.0 12.0 43.1 339
23/05/2020 11:40 15.0 80 1028.0 600 0.0 12.0 43.3 342
23/05/2020 11:50 15.3 79 971.0 600 0.0 11.9 42.8 342
23/05/2020 12:00 14.8 77 1000.0 600 0.0 12.0 43.3 341
23/05/2020 12:10 14.4 78 1046.0 600 0.0 12.1 43.5 342
23/05/2020 12:20 14.3 76 1060.0 600 0.0 11.7 42.2 342
23/05/2020 12:30 14.2 77 1052.0 600 0.0 12.0 43.3 342
23/05/2020 12:40 13.2 80 887.0 600 0.0 11.9 42.7 342
23/05/2020 12:50 13.8 77 1012.0 600 0.0 11.7 42.0 344
23/05/2020 13:00 14.0 76 988.0 600 0.0 11.3 40.6 343
23/05/2020 13:10 14.1 76 980.0 600 0.0 11.8 42.4 341
23/05/2020 13:20 14.0 77 964.0 600 0.0 11.4 40.9 342
23/05/2020 13:30 13.7 77 950.0 600 0.0 11.3 40.8 343
23/05/2020 13:40 14.0 76 947.0 600 0.0 10.9 39.2 346
23/05/2020 13:50 14.6 76 943.0 600 0.0 10.1 36.3 344
23/05/2020 14:00 15.3 73 922.0 600 0.0 9.3 33.3 347
23/05/2020 14:10 14.9 74 711.2 492 0.0 9.6 34.5 343
23/05/2020 14:20 14.1 75 435.0 234 0.0 11.0 39.7 344
23/05/2020 14:30 12.3 82 417.8 214 0.0 11.5 41.3 346
23/05/2020 14:40 11.8 82 449.7 386 0.0 12.2 43.7 348
23/05/2020 14:50 12.3 81 753.0 572 0.0 12.5 45.1 347
23/05/2020 15:00 12.0 82 776.6 600 0.0 11.4 40.9 351
23/05/2020 15:10 12.2 83 739.2 600 0.0 12.2 43.8 351
23/05/2020 15:20 12.7 81 714.2 600 0.0 12.8 46.0 347
23/05/2020 15:30 12.6 81 688.8 600 0.0 13.6 49.0 347
23/05/2020 15:40 12.7 80 666.4 600 0.0 13.9 50.0 349
23/05/2020 15:50 13.4 79 623.4 582 0.0 14.0 50.4 352
23/05/2020 16:00 12.5 81 167.1 4 0.0 13.7 49.4 359
23/05/2020 16:10 13.1 77 582.0 552 0.0 14.1 50.9 351
23/05/2020 16:20 12.2 81 262.3 176 0.0 14.3 51.6 355
23/05/2020 16:30 13.0 76 520.4 594 0.0 14.5 52.2 359
23/05/2020 16:40 11.7 80 487.1 600 0.0 14.0 50.5 351
23/05/2020 16:50 10.9 84 460.3 600 0.0 13.5 48.6 357
23/05/2020 17:00 11.0 84 432.9 600 0.0 13.5 48.4 1
23/05/2020 17:10 10.9 83 397.0 600 0.0 14.1 50.8 3
23/05/2020 17:20 11.2 82 346.0 580 0.0 13.9 50.0 12
23/05/2020 17:30 11.3 79 175.7 256 0.0 14.4 51.7 18
23/05/2020 17:40 11.1 80 297.6 600 0.0 14.9 53.7 23
23/05/2020 17:50 10.9 80 266.0 600 0.0 14.6 52.6 24
23/05/2020 18:00 10.9 81 234.9 600 0.0 14.8 53.2 19
23/05/2020 18:10 10.4 81 204.7 600 0.0 15.3 55.1 18
23/05/2020 18:20 10.5 82 174.2 600 0.0 15.8 56.7 17
23/05/2020 18:30 10.0 82 145.4 600 0.0 16.5 59.5 16
23/05/2020 18:40 9.9 84 118.5 600 0.0 16.7 60.1 18
23/05/2020 18:50 9.7 82 93.5 600 0.0 15.9 57.2 22
23/05/2020 19:00 9.6 83 69.2 600 0.0 16.1 57.8 27
23/05/2020 19:10 9.3 83 48.0 600 0.0 17.0 61.3 28
23/05/2020 19:20 9.1 84 28.9 284 0.0 17.4 62.6 30
23/05/2020 19:30 9.1 84 18.3 0 0.0 16.8 60.4 32
23/05/2020 19:40 8.6 86 7.0 0 0.0 15.7 56.6 26
23/05/2020 19:50 8.7 86 0.0 0 0.0 16.6 59.7 29
23/05/2020 20:00 8.4 87 0.0 0 0.0 15.6 56.2 28
23/05/2020 20:10 8.2 89 0.0 0 0.0 14.5 52.0 26
23/05/2020 20:20 8.1 90 0.0 0 0.0 14.6 52.7 22
23/05/2020 20:30 8.1 90 0.0 0 0.0 13.6 49.0 21
23/05/2020 20:40 8.2 90 0.0 0 0.0 13.8 49.5 20
23/05/2020 20:50 8.0 90 0.0 0 0.0 13.3 47.8 19
23/05/2020 21:00 7.9 90 0.0 0 0.0 14.0 50.2 18
23/05/2020 21:10 7.7 92 0.0 0 0.0 13.1 47.2 19
23/05/2020 21:20 7.9 90 0.0 0 0.0 12.5 45.0 24
23/05/2020 21:30 8.0 88 0.0 0 0.0 13.6 49.0 23
23/05/2020 21:40 8.2 89 0.0 0 0.0 13.7 49.5 22
23/05/2020 21:50 8.1 88 0.0 0 0.0 14.2 51.2 24
23/05/2020 22:00 8.2 87 0.0 0 0.0 14.4 51.8 24
23/05/2020 22:10 7.8 89 0.0 0 0.0 13.7 49.1 23
23/05/2020 22:20 7.6 91 0.0 0 0.0 12.4 44.5 22
23/05/2020 22:30 7.5 93 0.0 0 0.0 11.1 39.8 23
23/05/2020 22:40 7.3 93 0.0 0 0.0 10.6 38.1 25
23/05/2020 22:50 7.4 93 0.0 0 0.0 10.4 37.4 26
23/05/2020 23:00 7.5 94 0.0 0 0.0 10.8 38.7 25
23/05/2020 23:10 7.2 93 0.0 0 0.0 10.6 38.2 27
23/05/2020 23:20 7.3 93 0.0 0 0.0 10.4 37.6 27
23/05/2020 23:30 7.2 93 0.0 0 0.0 9.8 35.2 28
23/05/2020 23:40 7.4 92 0.0 0 0.0 9.1 32.9 29
23/05/2020 23:50 7.2 92 0.0 0 0.0 8.7 31.3 27
Anterior Página 1 de 1 Siguiente
Los datos de precipitación registrados en estaciones que están en cumbres son inferiores a lo real, como consecuencia del efecto del viento y de la nieve.


NOTA: Tipo de datos según el color:
   - Valores diarios o 10 minutos correctos
   - Valores diarios calculados a partir de un número de datos 10 minutos menor que 144 y mayor que 120, o de un número de datos semihorarios menor que 48 y mayor que 40 (caso de las estaciones de INTIA y del Ministerio)
   - Valores diez minutos estimados


Contacto        Enlaces        Aviso legal